Historyczne dane pomiarowe

Dodano dane terminowe – wersja testowa.

Dane z okresu 1951-2019

Wersja bazy: 1.34 [2019-03-16, lista zmian], aktualizacja planowana na 2019-04-15

Dane meteo z obszaru Polski uzyskane na podstawie danych udostępnionych przez Instytut Meteorologii i Gospodarki Wodnej – Państwowy Instytut Badawczy.

 

Wybierz Datę:    

       

TemperaturaWilgotnośćZachmurzenieWiatrCiśnienieWidzialnośćZjawiska
 Data    tng td wb rh cc ccl cl cm ch dir g1 g2 mslp ppp      
1999-07-23 00:00:00 15.6--- 11.1 13.074wxwxwxwx3wx--1012.9 988.6 0.0---wx
1999-07-23 01:00:00 14.8--- 12.1 13.284wxwxwxwx3wx--1013.2 988.8----wx
1999-07-23 02:00:00 14.4--- 12.0 13.085wxwxwxwx3wx--1013.3 988.8----wx
1999-07-23 03:00:00 14.2--- 12.1 13.087wxwxwxwx3wx--1013.2 988.7----wx
1999-07-23 04:00:00 14.8--- 11.7 13.082wxwxwxwx1wx--1013.6 989.2----wxw1
1999-07-23 05:00:00 14.2--- 12.5 13.289wxwxwxwx2wx--1014.3 989.8----wxw1
1999-07-23 06:00:00 14.2--- 12.1 13.087wxwxwxwx0wx--1014.5 990.0 1.5---wx
1999-07-23 07:00:00 14.7--- 12.7 13.588wxwxwxwx0wx--1014.7 990.2----wxw1
1999-07-23 08:00:00 15.1--- 12.0 13.382wxwxwxwx0wx--1014.9 990.5----wxw1
1999-07-23 09:00:00 15.7--- 12.3 13.780wxwxwxwx1wx--1015.0 990.6----wxw1
1999-07-23 10:00:00 16.8--- 13.1 14.679wxwxwxwx1wx--1015.0 990.7----wxw1
1999-07-23 11:00:00 17.3--- 11.8 14.170wxwxwxwx1wx--1015.1 990.8----wx
1999-07-23 12:00:00 18.2--- 11.2 14.163wxwxwxwx0wx--1015.0 990.8 0.5---wxw1
1999-07-23 13:00:00 18.6--- 13.1 15.370wxwxwxwx1wx--1014.9 990.8----wx
1999-07-23 14:00:00 18.5--- 13.2 15.371wxwxwxwx3wx--1015.3 991.1----wx
1999-07-23 15:00:00 18.2--- 13.4 15.374wxwxwxwx3wx--1015.6 991.4----wx
1999-07-23 16:00:00 17.9--- 13.4 15.275wxwxwxwxwx3wx--1015.8 991.6----wx
1999-07-23 17:00:00 17.3--- 13.0 14.776wxwxwx3wx--1016.1 991.8----wx
1999-07-23 18:00:00 17.1--- 12.0 14.172wxwxwxwx3wx--1016.5 992.2 0.0---wx
1999-07-23 19:00:00 14.9--- 12.5 13.586wxwxwxwx0wx--1017.6 993.1----wx
1999-07-23 20:00:00 15.5--- 13.5 14.388wxwxwxwx2wx--1018.1 993.6----wx
1999-07-23 21:00:00 15.3--- 14.0 14.592wxwxwxwx2wx--1018.6 994.1----wx
1999-07-23 22:00:00 14.9--- 13.0 13.889wxwxwx4wx--1019.2 994.6----wx
1999-07-23 23:00:00 13.9--- 12.0 12.888wxwxwx4wx--1019.2 994.6----wx

 

Źródłem pochodzenia danych jest Instytut Meteorologii i Gospodarki Wodnej – Państwowy Instytut Badawczy. Dane Instytutu Meteorologii i Gospodarki Wodnej – Państwowego Instytutu Badawczego zostały przetworzone.

Dane źródłowe można odnaleźć na stronie https://dane.imgw.pl